sensor_id;sensor_type;location;lat;lon;timestamp;temperature;humidity
3564;DHT22;1796;52.388;13.096;2023-02-28T00:00:31;-0.20;99.90
3564;DHT22;1796;52.388;13.096;2023-02-28T00:02:58;-0.20;99.90
3564;DHT22;1796;52.388;13.096;2023-02-28T00:05:27;-0.20;99.90
3564;DHT22;1796;52.388;13.096;2023-02-28T00:07:55;-0.10;99.90
3564;DHT22;1796;52.388;13.096;2023-02-28T00:10:25;-0.10;99.90
3564;DHT22;1796;52.388;13.096;2023-02-28T00:12:53;-0.10;99.90
3564;DHT22;1796;52.388;13.096;2023-02-28T00:15:23;-0.10;99.90
3564;DHT22;1796;52.388;13.096;2023-02-28T00:17:50;-0.10;99.90
3564;DHT22;1796;52.388;13.096;2023-02-28T00:20:17;0.00;99.90
3564;DHT22;1796;52.388;13.096;2023-02-28T00:22:48;0.00;99.90
3564;DHT22;1796;52.388;13.096;2023-02-28T00:25:17;0.00;99.90
3564;DHT22;1796;52.388;13.096;2023-02-28T00:27:45;0.00;99.90
3564;DHT22;1796;52.388;13.096;2023-02-28T00:30:13;0.00;99.90
3564;DHT22;1796;52.388;13.096;2023-02-28T00:32:41;0.00;99.90
3564;DHT22;1796;52.388;13.096;2023-02-28T00:35:08;0.00;99.90
3564;DHT22;1796;52.388;13.096;2023-02-28T00:37:35;0.00;99.90
3564;DHT22;1796;52.388;13.096;2023-02-28T00:40:04;0.10;99.90
3564;DHT22;1796;52.388;13.096;2023-02-28T00:42:31;0.20;99.90
3564;DHT22;1796;52.388;13.096;2023-02-28T00:44:58;0.20;99.90
3564;DHT22;1796;52.388;13.096;2023-02-28T00:47:25;0.30;99.90
3564;DHT22;1796;52.388;13.096;2023-02-28T00:49:52;0.30;99.90
3564;DHT22;1796;52.388;13.096;2023-02-28T00:52:19;0.30;99.90
3564;DHT22;1796;52.388;13.096;2023-02-28T00:54:46;0.30;99.90
3564;DHT22;1796;52.388;13.096;2023-02-28T00:57:15;0.30;99.90
3564;DHT22;1796;52.388;13.096;2023-02-28T00:59:41;0.40;99.90
3564;DHT22;1796;52.388;13.096;2023-02-28T01:02:08;0.30;99.90
3564;DHT22;1796;52.388;13.096;2023-02-28T01:04:35;0.40;99.90
3564;DHT22;1796;52.388;13.096;2023-02-28T01:07:02;0.40;99.90
3564;DHT22;1796;52.388;13.096;2023-02-28T01:09:29;0.40;99.90
3564;DHT22;1796;52.388;13.096;2023-02-28T01:11:56;0.30;99.90
3564;DHT22;1796;52.388;13.096;2023-02-28T01:14:24;0.30;99.90
3564;DHT22;1796;52.388;13.096;2023-02-28T01:16:51;0.30;99.90
3564;DHT22;1796;52.388;13.096;2023-02-28T01:19:18;0.30;99.90
3564;DHT22;1796;52.388;13.096;2023-02-28T01:21:45;0.30;99.90
3564;DHT22;1796;52.388;13.096;2023-02-28T01:24:11;0.30;99.90
3564;DHT22;1796;52.388;13.096;2023-02-28T01:26:38;0.30;99.90
3564;DHT22;1796;52.388;13.096;2023-02-28T01:29:05;0.30;99.90
3564;DHT22;1796;52.388;13.096;2023-02-28T01:31:33;0.20;99.90
3564;DHT22;1796;52.388;13.096;2023-02-28T01:34:00;0.10;99.90
3564;DHT22;1796;52.388;13.096;2023-02-28T01:36:27;0.10;99.90
3564;DHT22;1796;52.388;13.096;2023-02-28T01:38:54;0.10;99.90
3564;DHT22;1796;52.388;13.096;2023-02-28T01:41:23;0.10;99.90
3564;DHT22;1796;52.388;13.096;2023-02-28T01:43:57;0.20;99.90
3564;DHT22;1796;52.388;13.096;2023-02-28T01:46:24;0.10;99.90
3564;DHT22;1796;52.388;13.096;2023-02-28T01:48:56;0.00;99.90
3564;DHT22;1796;52.388;13.096;2023-02-28T01:51:27;0.00;99.90
3564;DHT22;1796;52.388;13.096;2023-02-28T01:53:58;0.00;99.90
3564;DHT22;1796;52.388;13.096;2023-02-28T01:56:29;0.00;99.90
3564;DHT22;1796;52.388;13.096;2023-02-28T01:58:57;0.10;99.90
3564;DHT22;1796;52.388;13.096;2023-02-28T02:01:27;0.10;99.90
3564;DHT22;1796;52.388;13.096;2023-02-28T02:04:00;0.00;99.90
3564;DHT22;1796;52.388;13.096;2023-02-28T02:06:29;0.00;99.90
3564;DHT22;1796;52.388;13.096;2023-02-28T02:08:57;0.00;99.90
3564;DHT22;1796;52.388;13.096;2023-02-28T02:11:24;0.10;99.90
3564;DHT22;1796;52.388;13.096;2023-02-28T02:14:12;0.10;99.90
3564;DHT22;1796;52.388;13.096;2023-02-28T02:16:52;0.20;99.90
3564;DHT22;1796;52.388;13.096;2023-02-28T02:19:49;0.10;99.90
3564;DHT22;1796;52.388;13.096;2023-02-28T02:22:43;0.10;99.90
3564;DHT22;1796;52.388;13.096;2023-02-28T02:25:22;0.00;99.90
3564;DHT22;1796;52.388;13.096;2023-02-28T02:31:25;0.00;99.90
3564;DHT22;1796;52.388;13.096;2023-02-28T02:34:25;0.00;99.90
3564;DHT22;1796;52.388;13.096;2023-02-28T02:36:58;0.00;99.90
3564;DHT22;1796;52.388;13.096;2023-02-28T02:39:31;-0.10;99.90
3564;DHT22;1796;52.388;13.096;2023-02-28T02:42:04;-0.20;99.90
3564;DHT22;1796;52.388;13.096;2023-02-28T02:44:38;-0.30;99.90
3564;DHT22;1796;52.388;13.096;2023-02-28T02:47:09;-0.40;99.90
3564;DHT22;1796;52.388;13.096;2023-02-28T02:49:40;-0.50;99.90
3564;DHT22;1796;52.388;13.096;2023-02-28T02:52:11;-0.50;99.90
3564;DHT22;1796;52.388;13.096;2023-02-28T02:54:40;-0.50;99.90
3564;DHT22;1796;52.388;13.096;2023-02-28T02:57:11;-0.50;99.90
3564;DHT22;1796;52.388;13.096;2023-02-28T02:59:40;-0.60;99.90
3564;DHT22;1796;52.388;13.096;2023-02-28T03:02:11;-0.70;99.90
3564;DHT22;1796;52.388;13.096;2023-02-28T03:04:43;-0.80;99.90
3564;DHT22;1796;52.388;13.096;2023-02-28T03:07:12;-0.90;99.90
3564;DHT22;1796;52.388;13.096;2023-02-28T03:09:39;-1.00;99.90
3564;DHT22;1796;52.388;13.096;2023-02-28T03:12:09;-1.00;99.90
3564;DHT22;1796;52.388;13.096;2023-02-28T03:14:47;-1.00;99.90
3564;DHT22;1796;52.388;13.096;2023-02-28T03:17:26;-1.10;99.90
3564;DHT22;1796;52.388;13.096;2023-02-28T03:20:04;-1.10;99.90
3564;DHT22;1796;52.388;13.096;2023-02-28T03:22:55;-1.10;99.90
3564;DHT22;1796;52.388;13.096;2023-02-28T03:25:32;-1.30;99.90
3564;DHT22;1796;52.388;13.096;2023-02-28T03:28:06;-1.40;99.90
3564;DHT22;1796;52.388;13.096;2023-02-28T03:30:41;-1.50;99.90
3564;DHT22;1796;52.388;13.096;2023-02-28T03:33:11;-1.60;99.90
3564;DHT22;1796;52.388;13.096;2023-02-28T03:35:43;-1.70;99.90
3564;DHT22;1796;52.388;13.096;2023-02-28T03:38:15;-1.70;99.90
3564;DHT22;1796;52.388;13.096;2023-02-28T03:40:47;-1.70;99.90
3564;DHT22;1796;52.388;13.096;2023-02-28T03:43:19;-1.80;99.90
3564;DHT22;1796;52.388;13.096;2023-02-28T03:45:50;-1.90;99.90
3564;DHT22;1796;52.388;13.096;2023-02-28T03:48:22;-1.70;99.90
3564;DHT22;1796;52.388;13.096;2023-02-28T03:50:54;-1.70;99.90
3564;DHT22;1796;52.388;13.096;2023-02-28T03:53:26;-1.80;99.90
3564;DHT22;1796;52.388;13.096;2023-02-28T03:55:57;-1.90;99.90
3564;DHT22;1796;52.388;13.096;2023-02-28T03:58:30;-1.90;99.90
3564;DHT22;1796;52.388;13.096;2023-02-28T04:01:03;-1.90;99.90
3564;DHT22;1796;52.388;13.096;2023-02-28T04:03:34;-1.90;99.90
3564;DHT22;1796;52.388;13.096;2023-02-28T04:06:02;-2.00;99.90
3564;DHT22;1796;52.388;13.096;2023-02-28T04:08:30;-2.10;99.90
3564;DHT22;1796;52.388;13.096;2023-02-28T04:11:01;-2.10;99.90
3564;DHT22;1796;52.388;13.096;2023-02-28T04:13:29;-2.10;99.90
3564;DHT22;1796;52.388;13.096;2023-02-28T04:15:56;-2.00;99.90
3564;DHT22;1796;52.388;13.096;2023-02-28T04:18:23;-2.00;99.90
3564;DHT22;1796;52.388;13.096;2023-02-28T04:20:50;-2.10;99.90
3564;DHT22;1796;52.388;13.096;2023-02-28T04:23:18;-2.20;99.90
3564;DHT22;1796;52.388;13.096;2023-02-28T04:25:45;-2.20;99.90
3564;DHT22;1796;52.388;13.096;2023-02-28T04:28:12;-2.30;99.90
3564;DHT22;1796;52.388;13.096;2023-02-28T04:30:38;-2.30;99.90
3564;DHT22;1796;52.388;13.096;2023-02-28T04:33:06;-2.40;99.90
3564;DHT22;1796;52.388;13.096;2023-02-28T04:35:32;-2.50;99.90
3564;DHT22;1796;52.388;13.096;2023-02-28T04:37:59;-2.60;99.90
3564;DHT22;1796;52.388;13.096;2023-02-28T04:40:28;-2.60;99.90
3564;DHT22;1796;52.388;13.096;2023-02-28T04:42:54;-2.50;99.90
3564;DHT22;1796;52.388;13.096;2023-02-28T04:45:21;-2.50;99.90
3564;DHT22;1796;52.388;13.096;2023-02-28T04:47:48;-2.50;99.90
3564;DHT22;1796;52.388;13.096;2023-02-28T04:50:15;-2.60;99.90
3564;DHT22;1796;52.388;13.096;2023-02-28T04:52:42;-2.70;99.90
3564;DHT22;1796;52.388;13.096;2023-02-28T04:55:09;-2.70;99.90
3564;DHT22;1796;52.388;13.096;2023-02-28T04:57:37;-2.70;99.90
3564;DHT22;1796;52.388;13.096;2023-02-28T05:00:05;-2.70;99.90
3564;DHT22;1796;52.388;13.096;2023-02-28T05:02:37;-2.80;99.90
3564;DHT22;1796;52.388;13.096;2023-02-28T05:05:04;-2.90;99.90
3564;DHT22;1796;52.388;13.096;2023-02-28T05:07:31;-2.90;99.90
3564;DHT22;1796;52.388;13.096;2023-02-28T05:09:57;-3.00;99.90
3564;DHT22;1796;52.388;13.096;2023-02-28T05:12:24;-3.10;99.90
3564;DHT22;1796;52.388;13.096;2023-02-28T05:14:53;-3.00;99.90
3564;DHT22;1796;52.388;13.096;2023-02-28T05:17:20;-3.10;99.90
3564;DHT22;1796;52.388;13.096;2023-02-28T05:19:46;-3.20;99.90
3564;DHT22;1796;52.388;13.096;2023-02-28T05:22:14;-3.10;99.90
3564;DHT22;1796;52.388;13.096;2023-02-28T05:24:42;-3.20;99.90
3564;DHT22;1796;52.388;13.096;2023-02-28T05:27:09;-3.20;99.90
3564;DHT22;1796;52.388;13.096;2023-02-28T05:29:36;-3.30;99.90
3564;DHT22;1796;52.388;13.096;2023-02-28T05:32:09;-3.30;99.90
3564;DHT22;1796;52.388;13.096;2023-02-28T05:34:37;-3.40;99.90
3564;DHT22;1796;52.388;13.096;2023-02-28T05:37:04;-3.40;99.90
3564;DHT22;1796;52.388;13.096;2023-02-28T05:39:30;-3.50;99.90
3564;DHT22;1796;52.388;13.096;2023-02-28T05:41:57;-3.50;99.90
3564;DHT22;1796;52.388;13.096;2023-02-28T05:44:24;-3.50;99.90
3564;DHT22;1796;52.388;13.096;2023-02-28T05:46:51;-3.50;99.90
3564;DHT22;1796;52.388;13.096;2023-02-28T05:49:19;-3.50;99.90
3564;DHT22;1796;52.388;13.096;2023-02-28T05:51:46;-3.50;99.90
3564;DHT22;1796;52.388;13.096;2023-02-28T05:54:13;-3.50;99.90
3564;DHT22;1796;52.388;13.096;2023-02-28T05:56:40;-3.50;99.90
3564;DHT22;1796;52.388;13.096;2023-02-28T05:59:09;-3.50;99.90
3564;DHT22;1796;52.388;13.096;2023-02-28T06:01:39;-3.50;99.90
3564;DHT22;1796;52.388;13.096;2023-02-28T06:04:07;-3.50;99.90
3564;DHT22;1796;52.388;13.096;2023-02-28T06:06:36;-3.50;99.90
3564;DHT22;1796;52.388;13.096;2023-02-28T06:09:05;-3.50;99.90
3564;DHT22;1796;52.388;13.096;2023-02-28T06:11:32;-3.50;99.90
3564;DHT22;1796;52.388;13.096;2023-02-28T06:13:59;-3.50;99.90
3564;DHT22;1796;52.388;13.096;2023-02-28T06:16:27;-3.30;99.90
3564;DHT22;1796;52.388;13.096;2023-02-28T06:18:54;-3.20;99.90
3564;DHT22;1796;52.388;13.096;2023-02-28T06:21:22;-2.90;99.90
3564;DHT22;1796;52.388;13.096;2023-02-28T06:23:50;-2.80;99.90
3564;DHT22;1796;52.388;13.096;2023-02-28T06:26:17;-2.60;99.90
3564;DHT22;1796;52.388;13.096;2023-02-28T06:28:44;-2.50;99.90
3564;DHT22;1796;52.388;13.096;2023-02-28T06:31:13;-2.40;99.90
3564;DHT22;1796;52.388;13.096;2023-02-28T06:33:40;-2.20;99.90
3564;DHT22;1796;52.388;13.096;2023-02-28T06:36:09;-2.10;99.90
3564;DHT22;1796;52.388;13.096;2023-02-28T06:38:36;-2.20;99.90
3564;DHT22;1796;52.388;13.096;2023-02-28T06:41:05;-2.20;99.90
3564;DHT22;1796;52.388;13.096;2023-02-28T06:43:34;-2.30;99.90
3564;DHT22;1796;52.388;13.096;2023-02-28T06:46:05;-2.40;99.90
3564;DHT22;1796;52.388;13.096;2023-02-28T06:48:32;-2.30;99.90
3564;DHT22;1796;52.388;13.096;2023-02-28T06:51:03;-2.00;99.90
3564;DHT22;1796;52.388;13.096;2023-02-28T06:53:30;-1.50;99.90
3564;DHT22;1796;52.388;13.096;2023-02-28T06:55:57;-1.10;99.90
3564;DHT22;1796;52.388;13.096;2023-02-28T06:58:26;-0.70;99.90
3564;DHT22;1796;52.388;13.096;2023-02-28T07:00:53;-0.40;99.90
3564;DHT22;1796;52.388;13.096;2023-02-28T07:03:21;-0.20;99.90
3564;DHT22;1796;52.388;13.096;2023-02-28T07:05:48;-0.10;99.90
3564;DHT22;1796;52.388;13.096;2023-02-28T07:08:16;0.20;99.90
3564;DHT22;1796;52.388;13.096;2023-02-28T07:10:43;0.20;99.90
3564;DHT22;1796;52.388;13.096;2023-02-28T07:13:11;0.20;99.90
3564;DHT22;1796;52.388;13.096;2023-02-28T07:15:39;0.10;99.90
3564;DHT22;1796;52.388;13.096;2023-02-28T07:18:06;-0.20;99.90
3564;DHT22;1796;52.388;13.096;2023-02-28T07:20:33;-0.30;99.90
3564;DHT22;1796;52.388;13.096;2023-02-28T07:22:59;-0.30;99.90
3564;DHT22;1796;52.388;13.096;2023-02-28T07:25:28;-0.40;99.90
3564;DHT22;1796;52.388;13.096;2023-02-28T07:27:55;-0.40;99.90
3564;DHT22;1796;52.388;13.096;2023-02-28T07:30:22;-0.50;99.90
3564;DHT22;1796;52.388;13.096;2023-02-28T07:32:50;-0.50;99.90
3564;DHT22;1796;52.388;13.096;2023-02-28T07:35:17;-0.50;99.90
3564;DHT22;1796;52.388;13.096;2023-02-28T07:37:44;-0.50;99.90
3564;DHT22;1796;52.388;13.096;2023-02-28T07:40:13;-0.50;99.90
3564;DHT22;1796;52.388;13.096;2023-02-28T07:42:41;-0.50;99.90
3564;DHT22;1796;52.388;13.096;2023-02-28T07:45:09;-0.60;99.90
3564;DHT22;1796;52.388;13.096;2023-02-28T07:47:37;-0.50;99.90
3564;DHT22;1796;52.388;13.096;2023-02-28T07:50:07;-0.40;99.90
3564;DHT22;1796;52.388;13.096;2023-02-28T07:52:34;-0.20;99.90
3564;DHT22;1796;52.388;13.096;2023-02-28T07:55:02;-0.10;99.90
3564;DHT22;1796;52.388;13.096;2023-02-28T07:57:30;0.00;99.90
3564;DHT22;1796;52.388;13.096;2023-02-28T07:59:57;0.10;99.90
3564;DHT22;1796;52.388;13.096;2023-02-28T08:02:24;0.20;99.90
3564;DHT22;1796;52.388;13.096;2023-02-28T08:04:51;0.20;99.90
3564;DHT22;1796;52.388;13.096;2023-02-28T08:07:19;0.30;99.90
3564;DHT22;1796;52.388;13.096;2023-02-28T08:09:46;0.40;99.90
3564;DHT22;1796;52.388;13.096;2023-02-28T08:12:13;0.50;99.90
3564;DHT22;1796;52.388;13.096;2023-02-28T08:14:40;0.60;99.90
3564;DHT22;1796;52.388;13.096;2023-02-28T08:17:07;0.50;99.90
3564;DHT22;1796;52.388;13.096;2023-02-28T08:19:33;0.50;99.90
3564;DHT22;1796;52.388;13.096;2023-02-28T08:22:00;0.60;99.90
3564;DHT22;1796;52.388;13.096;2023-02-28T08:24:29;0.60;99.90
3564;DHT22;1796;52.388;13.096;2023-02-28T08:26:56;0.60;99.90
3564;DHT22;1796;52.388;13.096;2023-02-28T08:29:23;0.80;99.90
3564;DHT22;1796;52.388;13.096;2023-02-28T08:31:50;1.10;99.90
3564;DHT22;1796;52.388;13.096;2023-02-28T08:34:16;1.10;99.90
3564;DHT22;1796;52.388;13.096;2023-02-28T08:36:43;1.20;99.90
3564;DHT22;1796;52.388;13.096;2023-02-28T08:39:11;1.20;99.90
3564;DHT22;1796;52.388;13.096;2023-02-28T08:41:40;1.30;99.90
3564;DHT22;1796;52.388;13.096;2023-02-28T08:44:06;1.60;99.90
3564;DHT22;1796;52.388;13.096;2023-02-28T08:46:33;1.60;99.90
3564;DHT22;1796;52.388;13.096;2023-02-28T08:49:00;1.70;99.90
3564;DHT22;1796;52.388;13.096;2023-02-28T08:51:28;1.60;99.90
3564;DHT22;1796;52.388;13.096;2023-02-28T08:53:58;1.70;99.90
3564;DHT22;1796;52.388;13.096;2023-02-28T08:56:25;1.80;99.90
3564;DHT22;1796;52.388;13.096;2023-02-28T08:58:56;1.90;99.90
3564;DHT22;1796;52.388;13.096;2023-02-28T09:01:25;1.90;99.90
3564;DHT22;1796;52.388;13.096;2023-02-28T09:03:53;1.90;99.90
3564;DHT22;1796;52.388;13.096;2023-02-28T09:06:21;2.00;99.90
3564;DHT22;1796;52.388;13.096;2023-02-28T09:08:48;2.10;99.90
3564;DHT22;1796;52.388;13.096;2023-02-28T09:11:16;2.00;99.90
3564;DHT22;1796;52.388;13.096;2023-02-28T09:13:44;2.00;99.90
3564;DHT22;1796;52.388;13.096;2023-02-28T09:16:14;2.10;99.90
3564;DHT22;1796;52.388;13.096;2023-02-28T09:18:42;2.30;99.90
3564;DHT22;1796;52.388;13.096;2023-02-28T09:21:11;2.30;99.90
3564;DHT22;1796;52.388;13.096;2023-02-28T09:23:39;2.30;99.90
3564;DHT22;1796;52.388;13.096;2023-02-28T09:26:07;2.30;99.90
3564;DHT22;1796;52.388;13.096;2023-02-28T09:28:34;2.30;99.90
3564;DHT22;1796;52.388;13.096;2023-02-28T09:31:01;2.40;99.90
3564;DHT22;1796;52.388;13.096;2023-02-28T09:33:31;2.40;99.90
3564;DHT22;1796;52.388;13.096;2023-02-28T09:36:00;2.30;99.90
3564;DHT22;1796;52.388;13.096;2023-02-28T09:38:27;2.20;99.90
3564;DHT22;1796;52.388;13.096;2023-02-28T09:40:56;2.30;99.90
3564;DHT22;1796;52.388;13.096;2023-02-28T09:43:25;2.30;99.90
3564;DHT22;1796;52.388;13.096;2023-02-28T09:45:59;2.50;99.90
3564;DHT22;1796;52.388;13.096;2023-02-28T09:48:33;2.50;99.90
3564;DHT22;1796;52.388;13.096;2023-02-28T09:51:04;2.60;99.90
3564;DHT22;1796;52.388;13.096;2023-02-28T09:53:34;2.60;99.90
3564;DHT22;1796;52.388;13.096;2023-02-28T09:56:03;2.60;99.90
3564;DHT22;1796;52.388;13.096;2023-02-28T09:58:35;2.60;99.90
3564;DHT22;1796;52.388;13.096;2023-02-28T10:01:07;2.80;99.90
3564;DHT22;1796;52.388;13.096;2023-02-28T10:03:39;2.80;99.90
3564;DHT22;1796;52.388;13.096;2023-02-28T10:06:11;2.60;99.90
3564;DHT22;1796;52.388;13.096;2023-02-28T10:08:45;2.70;99.90
3564;DHT22;1796;52.388;13.096;2023-02-28T10:11:18;2.70;99.90
3564;DHT22;1796;52.388;13.096;2023-02-28T10:13:51;2.70;99.90
3564;DHT22;1796;52.388;13.096;2023-02-28T10:16:24;2.70;99.90
3564;DHT22;1796;52.388;13.096;2023-02-28T10:18:56;2.70;99.90
3564;DHT22;1796;52.388;13.096;2023-02-28T10:21:26;2.80;99.90
3564;DHT22;1796;52.388;13.096;2023-02-28T10:24:03;2.70;99.90
3564;DHT22;1796;52.388;13.096;2023-02-28T10:26:31;2.70;99.90
3564;DHT22;1796;52.388;13.096;2023-02-28T10:28:59;2.80;99.90
3564;DHT22;1796;52.388;13.096;2023-02-28T10:31:26;2.90;99.90
3564;DHT22;1796;52.388;13.096;2023-02-28T10:33:55;2.90;99.90
3564;DHT22;1796;52.388;13.096;2023-02-28T10:36:22;2.90;99.90
3564;DHT22;1796;52.388;13.096;2023-02-28T10:38:49;3.00;99.90
3564;DHT22;1796;52.388;13.096;2023-02-28T10:41:27;3.00;99.90
3564;DHT22;1796;52.388;13.096;2023-02-28T10:44:13;3.00;99.90
3564;DHT22;1796;52.388;13.096;2023-02-28T10:46:41;3.00;99.90
3564;DHT22;1796;52.388;13.096;2023-02-28T10:49:17;3.10;99.90
3564;DHT22;1796;52.388;13.096;2023-02-28T10:51:45;2.90;99.90
3564;DHT22;1796;52.388;13.096;2023-02-28T10:54:16;3.00;99.90
3564;DHT22;1796;52.388;13.096;2023-02-28T10:56:45;3.00;99.90
3564;DHT22;1796;52.388;13.096;2023-02-28T10:59:28;3.10;99.90
3564;DHT22;1796;52.388;13.096;2023-02-28T11:01:55;3.20;99.90
3564;DHT22;1796;52.388;13.096;2023-02-28T11:04:35;3.20;99.90
3564;DHT22;1796;52.388;13.096;2023-02-28T11:07:06;3.30;99.90
3564;DHT22;1796;52.388;13.096;2023-02-28T11:09:46;3.10;99.90
3564;DHT22;1796;52.388;13.096;2023-02-28T11:12:21;3.20;99.90
3564;DHT22;1796;52.388;13.096;2023-02-28T11:14:51;3.10;99.90
3564;DHT22;1796;52.388;13.096;2023-02-28T11:17:21;3.10;99.90
3564;DHT22;1796;52.388;13.096;2023-02-28T11:19:52;3.20;99.90
3564;DHT22;1796;52.388;13.096;2023-02-28T11:22:21;3.40;99.90
3564;DHT22;1796;52.388;13.096;2023-02-28T11:24:54;3.60;99.90
3564;DHT22;1796;52.388;13.096;2023-02-28T11:27:26;3.50;99.90
3564;DHT22;1796;52.388;13.096;2023-02-28T11:30:27;3.40;99.90
3564;DHT22;1796;52.388;13.096;2023-02-28T11:32:54;3.30;99.90
3564;DHT22;1796;52.388;13.096;2023-02-28T11:35:26;3.40;99.90
3564;DHT22;1796;52.388;13.096;2023-02-28T11:37:55;3.30;99.90
3564;DHT22;1796;52.388;13.096;2023-02-28T11:40:34;3.50;99.90
3564;DHT22;1796;52.388;13.096;2023-02-28T11:43:16;3.50;99.90
3564;DHT22;1796;52.388;13.096;2023-02-28T11:45:56;3.30;99.90
3564;DHT22;1796;52.388;13.096;2023-02-28T11:48:28;3.30;99.90
3564;DHT22;1796;52.388;13.096;2023-02-28T11:51:08;3.40;99.90
3564;DHT22;1796;52.388;13.096;2023-02-28T11:53:56;3.40;99.90
3564;DHT22;1796;52.388;13.096;2023-02-28T11:56:32;3.40;99.90
3564;DHT22;1796;52.388;13.096;2023-02-28T11:59:11;3.60;99.90
3564;DHT22;1796;52.388;13.096;2023-02-28T12:01:56;3.70;99.90
3564;DHT22;1796;52.388;13.096;2023-02-28T12:04:29;3.60;99.90
3564;DHT22;1796;52.388;13.096;2023-02-28T12:07:07;3.70;99.90
3564;DHT22;1796;52.388;13.096;2023-02-28T12:09:46;3.60;99.90
3564;DHT22;1796;52.388;13.096;2023-02-28T12:12:23;3.70;99.90
3564;DHT22;1796;52.388;13.096;2023-02-28T12:15:13;3.80;99.90
3564;DHT22;1796;52.388;13.096;2023-02-28T12:17:51;3.70;99.90
3564;DHT22;1796;52.388;13.096;2023-02-28T12:20:27;3.80;99.90
3564;DHT22;1796;52.388;13.096;2023-02-28T12:23:10;3.90;99.90
3564;DHT22;1796;52.388;13.096;2023-02-28T12:25:53;3.80;99.90
3564;DHT22;1796;52.388;13.096;2023-02-28T12:28:26;3.90;99.90
3564;DHT22;1796;52.388;13.096;2023-02-28T12:30:58;3.80;99.90
3564;DHT22;1796;52.388;13.096;2023-02-28T12:33:31;3.90;99.90
3564;DHT22;1796;52.388;13.096;2023-02-28T12:36:03;4.00;99.90
3564;DHT22;1796;52.388;13.096;2023-02-28T12:38:36;4.10;99.90
3564;DHT22;1796;52.388;13.096;2023-02-28T12:41:08;4.10;99.90
3564;DHT22;1796;52.388;13.096;2023-02-28T12:43:40;4.00;99.90
3564;DHT22;1796;52.388;13.096;2023-02-28T12:46:12;4.00;99.90
3564;DHT22;1796;52.388;13.096;2023-02-28T12:48:42;4.10;99.90
3564;DHT22;1796;52.388;13.096;2023-02-28T12:51:10;4.00;99.90
3564;DHT22;1796;52.388;13.096;2023-02-28T12:53:50;3.90;99.90
3564;DHT22;1796;52.388;13.096;2023-02-28T12:56:24;4.10;99.90
3564;DHT22;1796;52.388;13.096;2023-02-28T12:58:59;3.90;99.90
3564;DHT22;1796;52.388;13.096;2023-02-28T13:01:47;4.10;99.90
3564;DHT22;1796;52.388;13.096;2023-02-28T13:07:33;4.20;99.90
3564;DHT22;1796;52.388;13.096;2023-02-28T13:10:05;4.20;99.90
3564;DHT22;1796;52.388;13.096;2023-02-28T13:12:33;4.30;99.90
3564;DHT22;1796;52.388;13.096;2023-02-28T13:15:05;4.00;99.90
3564;DHT22;1796;52.388;13.096;2023-02-28T13:17:38;4.10;99.90
3564;DHT22;1796;52.388;13.096;2023-02-28T13:20:15;4.20;99.90
3564;DHT22;1796;52.388;13.096;2023-02-28T13:22:45;4.30;99.90
3564;DHT22;1796;52.388;13.096;2023-02-28T13:25:50;4.20;99.90
3564;DHT22;1796;52.388;13.096;2023-02-28T13:28:57;4.10;99.90
3564;DHT22;1796;52.388;13.096;2023-02-28T13:31:24;4.20;99.90
3564;DHT22;1796;52.388;13.096;2023-02-28T13:34:14;4.30;99.90
3564;DHT22;1796;52.388;13.096;2023-02-28T13:36:41;4.30;99.90
3564;DHT22;1796;52.388;13.096;2023-02-28T13:39:45;4.30;99.90
3564;DHT22;1796;52.388;13.096;2023-02-28T13:42:36;4.30;99.90
3564;DHT22;1796;52.388;13.096;2023-02-28T13:45:26;4.20;99.90
3564;DHT22;1796;52.388;13.096;2023-02-28T13:47:56;4.30;99.90
3564;DHT22;1796;52.388;13.096;2023-02-28T13:50:29;4.30;99.90
3564;DHT22;1796;52.388;13.096;2023-02-28T13:53:33;4.40;99.90
3564;DHT22;1796;52.388;13.096;2023-02-28T13:56:10;4.20;99.90
3564;DHT22;1796;52.388;13.096;2023-02-28T13:58:53;4.10;99.90
3564;DHT22;1796;52.388;13.096;2023-02-28T14:01:40;4.10;99.90
3564;DHT22;1796;52.388;13.096;2023-02-28T14:07:17;4.50;99.90
3564;DHT22;1796;52.388;13.096;2023-02-28T14:09:48;4.40;99.90
3564;DHT22;1796;52.388;13.096;2023-02-28T14:15:43;4.30;99.90
3564;DHT22;1796;52.388;13.096;2023-02-28T14:18:18;4.40;99.90
3564;DHT22;1796;52.388;13.096;2023-02-28T14:20:47;4.30;99.90
3564;DHT22;1796;52.388;13.096;2023-02-28T14:24:33;4.30;99.90
3564;DHT22;1796;52.388;13.096;2023-02-28T14:27:15;4.30;99.90
3564;DHT22;1796;52.388;13.096;2023-02-28T14:30:20;4.20;99.90
3564;DHT22;1796;52.388;13.096;2023-02-28T14:33:01;4.10;99.90
3564;DHT22;1796;52.388;13.096;2023-02-28T14:35:50;4.10;99.90
3564;DHT22;1796;52.388;13.096;2023-02-28T14:38:21;4.00;99.90
3564;DHT22;1796;52.388;13.096;2023-02-28T14:40:54;4.10;99.90
3564;DHT22;1796;52.388;13.096;2023-02-28T14:43:23;4.10;99.90
3564;DHT22;1796;52.388;13.096;2023-02-28T14:45:52;4.00;99.90
3564;DHT22;1796;52.388;13.096;2023-02-28T14:48:20;4.20;99.90
3564;DHT22;1796;52.388;13.096;2023-02-28T14:50:53;4.40;99.90
3564;DHT22;1796;52.388;13.096;2023-02-28T14:53:22;4.40;99.90
3564;DHT22;1796;52.388;13.096;2023-02-28T14:55:51;4.40;99.90
3564;DHT22;1796;52.388;13.096;2023-02-28T14:58:23;4.40;99.90
3564;DHT22;1796;52.388;13.096;2023-02-28T15:00:52;4.30;99.90
3564;DHT22;1796;52.388;13.096;2023-02-28T15:03:21;4.30;99.90
3564;DHT22;1796;52.388;13.096;2023-02-28T15:05:52;4.30;99.90
3564;DHT22;1796;52.388;13.096;2023-02-28T15:08:19;4.30;99.90
3564;DHT22;1796;52.388;13.096;2023-02-28T15:10:53;4.30;99.90
3564;DHT22;1796;52.388;13.096;2023-02-28T15:13:21;4.20;99.90
3564;DHT22;1796;52.388;13.096;2023-02-28T15:15:53;4.30;99.90
3564;DHT22;1796;52.388;13.096;2023-02-28T15:18:31;4.30;99.90
3564;DHT22;1796;52.388;13.096;2023-02-28T15:21:01;4.30;99.90
3564;DHT22;1796;52.388;13.096;2023-02-28T15:23:29;4.30;99.90
3564;DHT22;1796;52.388;13.096;2023-02-28T15:26:01;4.30;99.90
3564;DHT22;1796;52.388;13.096;2023-02-28T15:28:29;4.30;99.90
3564;DHT22;1796;52.388;13.096;2023-02-28T15:30:58;4.30;99.90
3564;DHT22;1796;52.388;13.096;2023-02-28T15:33:27;4.20;99.90
3564;DHT22;1796;52.388;13.096;2023-02-28T15:36:05;4.20;99.90
3564;DHT22;1796;52.388;13.096;2023-02-28T15:38:34;4.30;99.90
3564;DHT22;1796;52.388;13.096;2023-02-28T15:41:03;4.30;99.90
3564;DHT22;1796;52.388;13.096;2023-02-28T15:43:38;4.30;99.90
3564;DHT22;1796;52.388;13.096;2023-02-28T15:46:07;4.30;99.90
3564;DHT22;1796;52.388;13.096;2023-02-28T15:48:36;4.30;99.90
3564;DHT22;1796;52.388;13.096;2023-02-28T15:51:07;4.30;99.90
3564;DHT22;1796;52.388;13.096;2023-02-28T15:53:37;4.20;99.90
3564;DHT22;1796;52.388;13.096;2023-02-28T15:56:22;4.10;99.90
3564;DHT22;1796;52.388;13.096;2023-02-28T15:58:50;4.30;99.90
3564;DHT22;1796;52.388;13.096;2023-02-28T16:01:23;4.20;99.90
3564;DHT22;1796;52.388;13.096;2023-02-28T16:03:53;4.10;99.90
3564;DHT22;1796;52.388;13.096;2023-02-28T16:06:42;4.10;99.90
3564;DHT22;1796;52.388;13.096;2023-02-28T16:09:12;4.00;99.90
3564;DHT22;1796;52.388;13.096;2023-02-28T16:11:42;4.00;99.90
3564;DHT22;1796;52.388;13.096;2023-02-28T16:14:15;3.90;99.90
3564;DHT22;1796;52.388;13.096;2023-02-28T16:16:47;3.80;99.90
3564;DHT22;1796;52.388;13.096;2023-02-28T16:19:14;3.60;99.90
3564;DHT22;1796;52.388;13.096;2023-02-28T16:21:41;3.50;99.90
3564;DHT22;1796;52.388;13.096;2023-02-28T16:24:08;3.50;99.90
3564;DHT22;1796;52.388;13.096;2023-02-28T16:26:35;3.50;99.90
3564;DHT22;1796;52.388;13.096;2023-02-28T16:29:06;3.50;99.90
3564;DHT22;1796;52.388;13.096;2023-02-28T16:31:37;3.60;99.90
3564;DHT22;1796;52.388;13.096;2023-02-28T16:34:04;3.40;99.90
3564;DHT22;1796;52.388;13.096;2023-02-28T16:36:31;3.20;99.90